Terminal Aerodrome Forecast
Issued by NWS

Current Version | Previous Version | Graphics & Text | Print | Product List | Glossary On
Versions: 1 2 3 4 5 6 7 8 9 10 11 12 13 14 15 16 17 18
000
FTUS41 KPBZ 281723
TAFMGW
TAF
KMGW 281723Z 2818/2918 23010KT P6SM VCSH BKN015
     FM282000 29010KT P6SM SCT025 BKN035
     FM290900 28005KT 3SM BR SCT015
     FM291500 16005KT P6SM SCT150=

USA.gov is the U.S. government's official web portal to all federal, state and local government web resources and services.